createdAt,value
2017-08-03T00:00:25.690Z,99.99
2017-08-03T00:01:34.898Z,99.99
2017-08-03T00:02:44.105Z,99.99
2017-08-03T00:03:53.320Z,99.99
2017-08-03T00:05:02.529Z,99.99
2017-08-03T00:06:11.736Z,99.99
2017-08-03T00:07:21.603Z,99.99
2017-08-03T00:08:31.130Z,99.99
2017-08-03T00:09:40.341Z,99.99
2017-08-03T00:10:50.198Z,99.99
2017-08-03T00:11:59.453Z,99.99
2017-08-03T00:13:08.979Z,99.99
2017-08-03T00:14:18.185Z,99.99
2017-08-03T00:15:27.718Z,99.99
2017-08-03T00:16:37.576Z,99.99
2017-08-03T00:17:46.931Z,99.99
2017-08-03T00:18:56.461Z,99.99
2017-08-03T00:20:05.342Z,99.99
2017-08-03T00:21:14.548Z,99.99
2017-08-03T00:22:24.090Z,99.99
2017-08-03T00:23:33.747Z,99.99
2017-08-03T00:24:42.954Z,99.99
2017-08-03T00:25:51.840Z,99.99
2017-08-03T00:27:01.377Z,99.99
2017-08-03T00:28:10.587Z,99.99
2017-08-03T00:29:19.839Z,99.99
2017-08-03T00:30:30.013Z,99.99
2017-08-03T00:31:39.540Z,99.99
2017-08-03T00:32:49.392Z,99.99
2017-08-03T00:33:58.595Z,99.99
2017-08-03T00:35:07.949Z,99.99
2017-08-03T00:36:17.802Z,99.99
2017-08-03T00:37:27.665Z,99.99
2017-08-03T00:38:37.199Z,99.99
2017-08-03T00:39:46.722Z,99.99
2017-08-03T00:40:56.630Z,99.99
2017-08-03T00:42:06.162Z,99.99
2017-08-03T00:43:15.366Z,99.99
2017-08-03T00:44:24.569Z,99.99
2017-08-03T00:45:34.421Z,99.99
2017-08-03T00:46:43.352Z,99.99
2017-08-03T00:47:52.880Z,99.99
2017-08-03T00:49:02.414Z,99.99
2017-08-03T00:50:11.627Z,99.99
2017-08-03T00:51:21.167Z,99.99
2017-08-03T00:52:30.799Z,99.99
2017-08-03T00:53:40.649Z,99.99
2017-08-03T00:54:49.544Z,99.99
2017-08-03T00:55:58.754Z,99.99
2017-08-03T00:57:08.933Z,99.99
2017-08-03T00:58:18.253Z,99.99
2017-08-03T00:59:27.140Z,99.99
2017-08-03T01:00:36.352Z,99.99
2017-08-03T01:01:45.888Z,99.99
2017-08-03T01:02:56.065Z,99.99
2017-08-03T01:04:05.748Z,99.99
2017-08-03T01:05:14.956Z,99.99
2017-08-03T01:06:24.487Z,99.99
2017-08-03T01:07:34.340Z,99.99
2017-08-03T01:08:44.207Z,99.99
2017-08-03T01:09:53.468Z,99.99
2017-08-03T01:11:02.999Z,99.99
2017-08-03T01:12:12.853Z,99.99
2017-08-03T01:13:22.398Z,99.99
2017-08-03T01:14:31.280Z,99.99
2017-08-03T01:15:40.220Z,99.99
2017-08-03T01:16:49.752Z,99.99
2017-08-03T01:17:58.961Z,99.99
2017-08-03T01:19:08.487Z,99.99
2017-08-03T01:20:17.697Z,99.99
2017-08-03T01:21:27.275Z,99.99
2017-08-03T01:22:37.128Z,99.99
2017-08-03T01:23:46.708Z,99.99
2017-08-03T01:24:56.245Z,99.99
2017-08-03T01:26:05.773Z,99.99
2017-08-03T01:27:15.793Z,99.99
2017-08-03T01:28:25.007Z,99.99
2017-08-03T01:29:34.863Z,99.99
2017-08-03T01:30:44.073Z,99.99
2017-08-03T01:31:53.937Z,99.99
2017-08-03T01:33:02.973Z,99.99
2017-08-03T01:34:12.503Z,99.99
2017-08-03T01:35:22.037Z,99.99
2017-08-03T01:36:31.566Z,99.99
2017-08-03T01:37:41.419Z,99.99
2017-08-03T01:38:51.100Z,99.99
2017-08-03T01:40:00.633Z,99.99
2017-08-03T01:41:09.840Z,99.99
2017-08-03T01:42:19.047Z,99.99
2017-08-03T01:43:29.224Z,99.99
2017-08-03T01:44:38.728Z,99.99
2017-08-03T01:45:48.268Z,99.99
2017-08-03T01:46:57.805Z,99.99
2017-08-03T01:48:07.335Z,99.99
2017-08-03T01:49:16.912Z,99.99
2017-08-03T01:50:26.370Z,99.99
2017-08-03T01:51:35.581Z,99.99
2017-08-03T01:52:44.787Z,99.99
2017-08-03T01:53:54.314Z,99.99
2017-08-03T01:55:03.198Z,99.99
2017-08-03T01:56:13.032Z,99.99
2017-08-03T01:57:21.918Z,99.99
2017-08-03T01:58:31.132Z,99.99
2017-08-03T01:59:40.016Z,99.99
2017-08-03T02:00:48.902Z,99.99
2017-08-03T02:01:58.496Z,99.99
2017-08-03T02:03:08.674Z,99.99
2017-08-03T02:04:18.205Z,99.99
2017-08-03T02:05:27.411Z,99.99
2017-08-03T02:06:36.943Z,99.99
2017-08-03T02:07:46.520Z,99.99
2017-08-03T02:08:55.404Z,99.99
2017-08-03T02:10:04.298Z,99.99
2017-08-03T02:11:14.470Z,99.99
2017-08-03T02:12:24.006Z,99.99
2017-08-03T02:13:32.895Z,99.99
2017-08-03T02:14:42.104Z,99.99
2017-08-03T02:15:50.985Z,99.99
2017-08-03T02:17:00.839Z,99.99
2017-08-03T02:18:10.044Z,99.99
2017-08-03T02:19:19.949Z,99.99
2017-08-03T02:20:29.474Z,99.99
2017-08-03T02:21:39.021Z,99.99
2017-08-03T02:22:47.904Z,99.99
2017-08-03T02:23:57.110Z,99.99
2017-08-03T02:25:07.120Z,99.99
2017-08-03T02:26:16.663Z,99.99
2017-08-03T02:27:25.865Z,99.99
2017-08-03T02:28:35.390Z,99.99
2017-08-03T02:29:44.919Z,99.99
2017-08-03T02:30:53.904Z,99.99
2017-08-03T02:32:03.431Z,99.99
2017-08-03T02:33:12.967Z,99.99
2017-08-03T02:34:22.493Z,99.99
2017-08-03T02:35:32.023Z,99.99
2017-08-03T02:36:41.557Z,99.99
2017-08-03T02:37:50.770Z,99.99
2017-08-03T02:38:59.977Z,99.99
2017-08-03T02:40:09.838Z,99.99
2017-08-03T02:41:19.054Z,99.99
2017-08-03T02:42:28.270Z,99.99
2017-08-03T02:43:38.449Z,99.99
2017-08-03T02:44:47.982Z,99.99
2017-08-03T02:45:57.514Z,99.99
2017-08-03T02:47:06.724Z,99.99
2017-08-03T02:48:16.252Z,99.99
2017-08-03T02:49:26.105Z,99.99
2017-08-03T02:50:35.319Z,99.99
2017-08-03T02:51:44.851Z,99.99
2017-08-03T02:52:54.708Z,99.99
2017-08-03T02:54:03.749Z,99.99
2017-08-03T02:55:12.636Z,99.99
2017-08-03T02:56:22.491Z,99.99
2017-08-03T02:57:31.389Z,99.99
2017-08-03T02:58:40.281Z,99.99
2017-08-03T02:59:50.755Z,99.99
2017-08-03T03:00:59.636Z,99.99
2017-08-03T03:02:09.166Z,99.99
2017-08-03T03:03:18.047Z,99.99
2017-08-03T03:04:27.580Z,99.99
2017-08-03T03:05:37.536Z,99.99
2017-08-03T03:06:47.395Z,99.99
2017-08-03T03:07:56.600Z,99.99
2017-08-03T03:09:06.130Z,99.99
2017-08-03T03:10:15.013Z,99.99
2017-08-03T03:11:24.146Z,99.99
2017-08-03T03:12:33.674Z,99.99
2017-08-03T03:13:43.209Z,99.99
2017-08-03T03:14:52.738Z,99.99
2017-08-03T03:16:02.266Z,99.99
2017-08-03T03:17:11.725Z,99.99
2017-08-03T03:18:21.254Z,99.99
2017-08-03T03:19:30.462Z,99.99
2017-08-03T03:20:39.670Z,99.99
2017-08-03T03:21:48.875Z,99.99
2017-08-03T03:22:57.809Z,99.99
2017-08-03T03:24:07.661Z,99.99
2017-08-03T03:25:16.867Z,99.99
2017-08-03T03:26:25.749Z,99.99
2017-08-03T03:27:34.954Z,99.99
2017-08-03T03:28:44.134Z,99.99
2017-08-03T03:29:53.991Z,99.99
2017-08-03T03:31:04.175Z,99.99
2017-08-03T03:32:14.035Z,99.99
2017-08-03T03:33:23.241Z,99.99
2017-08-03T03:34:32.497Z,99.99
2017-08-03T03:35:42.032Z,99.99
2017-08-03T03:36:51.236Z,99.99
2017-08-03T03:38:00.779Z,99.99
2017-08-03T03:39:10.003Z,99.99
2017-08-03T03:40:19.209Z,99.99
2017-08-03T03:41:29.065Z,99.99
2017-08-03T03:42:38.273Z,99.99
2017-08-03T03:43:47.802Z,99.99
2017-08-03T03:44:57.007Z,99.99
2017-08-03T03:46:06.593Z,99.99
2017-08-03T03:47:15.805Z,99.99
2017-08-03T03:48:25.342Z,99.99
2017-08-03T03:49:34.545Z,99.99
2017-08-03T03:50:44.085Z,99.99
2017-08-03T03:51:53.164Z,99.99
2017-08-03T03:53:02.701Z,99.99
2017-08-03T03:54:12.234Z,99.99
2017-08-03T03:55:21.436Z,99.99
2017-08-03T03:56:30.645Z,99.99
2017-08-03T03:57:40.473Z,99.99
2017-08-03T03:58:50.003Z,99.99
2017-08-03T03:59:59.531Z,99.99
2017-08-03T04:01:08.741Z,99.99
2017-08-03T04:02:18.594Z,99.99
2017-08-03T04:03:27.960Z,99.99
2017-08-03T04:04:37.816Z,99.99
2017-08-03T04:05:47.022Z,99.99
2017-08-03T04:06:57.197Z,99.99
2017-08-03T04:08:06.744Z,99.99
2017-08-03T04:09:16.376Z,99.99
2017-08-03T04:10:25.904Z,99.99
2017-08-03T04:11:35.115Z,99.99
2017-08-03T04:12:44.320Z,99.99
2017-08-03T04:13:53.845Z,99.99
2017-08-03T04:15:02.929Z,99.99
2017-08-03T04:16:12.139Z,99.99
2017-08-03T04:17:21.350Z,99.99
2017-08-03T04:18:30.875Z,99.99
2017-08-03T04:19:39.759Z,99.99
2017-08-03T04:20:49.771Z,99.99
2017-08-03T04:21:59.318Z,99.99
2017-08-03T04:23:08.526Z,99.99
2017-08-03T04:24:18.066Z,99.99
2017-08-03T04:25:27.605Z,99.99
2017-08-03T04:26:37.458Z,99.99
2017-08-03T04:27:46.989Z,99.99
2017-08-03T04:28:56.554Z,99.99
2017-08-03T04:30:05.843Z,99.99
2017-08-03T04:31:16.028Z,99.99
2017-08-03T04:32:24.913Z,99.99
2017-08-03T04:33:34.777Z,99.99
2017-08-03T04:34:44.302Z,99.99
2017-08-03T04:35:53.835Z,99.99
2017-08-03T04:37:03.376Z,99.99
2017-08-03T04:38:12.584Z,99.99
2017-08-03T04:39:21.467Z,99.99
2017-08-03T04:40:31.318Z,99.99
2017-08-03T04:41:40.856Z,99.99
2017-08-03T04:42:50.405Z,99.99
2017-08-03T04:43:59.290Z,99.99
2017-08-03T04:45:08.497Z,99.99
2017-08-03T04:46:17.699Z,99.99
2017-08-03T04:47:27.564Z,99.99
2017-08-03T04:48:36.773Z,99.99
2017-08-03T04:49:46.622Z,99.99
2017-08-03T04:50:55.853Z,99.99
2017-08-03T04:52:05.683Z,99.99
2017-08-03T04:53:14.618Z,99.99
2017-08-03T04:54:23.828Z,99.99
2017-08-03T04:55:32.713Z,99.99
2017-08-03T04:56:42.247Z,99.99
2017-08-03T04:57:51.606Z,99.99
2017-08-03T04:59:00.812Z,99.99
2017-08-03T05:00:10.343Z,99.99
2017-08-03T05:01:20.200Z,99.99
2017-08-03T05:02:30.078Z,99.99
2017-08-03T05:03:39.157Z,99.99
2017-08-03T05:04:48.368Z,99.99
2017-08-03T05:05:57.574Z,99.99
2017-08-03T05:07:07.750Z,99.99
2017-08-03T05:08:17.929Z,99.99
2017-08-03T05:09:28.355Z,99.99
2017-08-03T05:10:38.209Z,99.99
2017-08-03T05:11:47.423Z,99.99
2017-08-03T05:12:57.273Z,99.99
2017-08-03T05:14:06.816Z,99.99
2017-08-03T05:15:16.450Z,99.99
2017-08-03T05:16:25.342Z,99.99
2017-08-03T05:17:34.870Z,99.99
2017-08-03T05:18:44.090Z,99.99
2017-08-03T05:19:52.998Z,99.99
2017-08-03T05:21:02.507Z,99.99
2017-08-03T05:22:12.039Z,99.99
2017-08-03T05:23:21.244Z,99.99
2017-08-03T05:24:30.784Z,99.99
2017-08-03T05:25:39.993Z,99.99
2017-08-03T05:26:49.025Z,99.99
2017-08-03T05:27:57.914Z,99.99
2017-08-03T05:29:07.456Z,99.99
2017-08-03T05:30:16.992Z,99.99
2017-08-03T05:31:26.205Z,99.99
2017-08-03T05:32:36.552Z,99.99
2017-08-03T05:33:45.759Z,99.99
2017-08-03T05:34:55.290Z,99.99
2017-08-03T05:36:05.153Z,99.99
2017-08-03T05:37:14.687Z,99.99
2017-08-03T05:38:24.048Z,99.99
2017-08-03T05:39:33.578Z,99.99
2017-08-03T05:40:42.468Z,99.99
2017-08-03T05:41:52.326Z,99.99
2017-08-03T05:43:02.182Z,99.99
2017-08-03T05:44:11.546Z,99.99
2017-08-03T05:45:20.437Z,99.99
2017-08-03T05:46:30.622Z,99.99
2017-08-03T05:47:40.178Z,99.99
2017-08-03T05:48:50.236Z,99.99
2017-08-03T05:50:00.164Z,99.99
2017-08-03T05:51:09.966Z,99.99
2017-08-03T05:52:20.848Z,99.99
2017-08-03T05:53:30.195Z,99.99
2017-08-03T05:54:39.799Z,99.99
2017-08-03T05:55:50.469Z,99.99
2017-08-03T05:57:00.722Z,99.99
2017-08-03T05:58:10.613Z,99.99
2017-08-03T05:59:19.826Z,99.99
2017-08-03T06:00:29.976Z,99.99
2017-08-03T06:01:39.381Z,99.99
2017-08-03T06:02:49.275Z,99.99
2017-08-03T06:03:58.261Z,99.99
2017-08-03T06:05:08.232Z,99.99
2017-08-03T06:06:18.594Z,99.99
2017-08-03T06:07:28.283Z,99.99
2017-08-03T06:08:37.551Z,99.99
2017-08-03T06:09:46.790Z,99.99
2017-08-03T06:10:56.062Z,99.99
2017-08-03T06:12:06.365Z,99.99
2017-08-03T06:13:15.449Z,99.99
2017-08-03T06:14:24.707Z,99.99
2017-08-03T06:15:33.616Z,99.99
2017-08-03T06:16:43.421Z,99.99
2017-08-03T06:17:52.851Z,99.99
2017-08-03T06:19:02.349Z,99.99
2017-08-03T06:20:13.329Z,99.99
2017-08-03T06:21:22.635Z,99.99
2017-08-03T06:22:31.826Z,99.99
2017-08-03T06:23:40.789Z,99.99
2017-08-03T06:24:50.228Z,99.99
2017-08-03T06:25:59.506Z,99.99
2017-08-03T06:27:08.962Z,99.99
2017-08-03T06:28:18.604Z,99.99
2017-08-03T06:29:27.898Z,99.99
2017-08-03T06:30:37.250Z,99.99
2017-08-03T06:31:46.241Z,99.99
2017-08-03T06:32:55.548Z,99.99
2017-08-03T06:34:04.545Z,99.99
2017-08-03T06:35:14.163Z,99.99
2017-08-03T06:36:23.598Z,99.99
2017-08-03T06:37:32.885Z,99.99
2017-08-03T06:38:42.408Z,99.99
2017-08-03T06:39:52.181Z,99.99
2017-08-03T06:41:02.105Z,99.99
2017-08-03T06:42:11.504Z,99.99
2017-08-03T06:43:20.827Z,99.99
2017-08-03T06:44:30.124Z,99.99
2017-08-03T06:45:39.523Z,99.99
2017-08-03T06:46:49.108Z,99.99
2017-08-03T06:47:58.151Z,99.99
2017-08-03T06:49:07.474Z,99.99
2017-08-03T06:50:17.162Z,99.99
2017-08-03T06:51:26.109Z,99.99
2017-08-03T06:52:35.934Z,99.99
2017-08-03T06:53:45.826Z,99.99
2017-08-03T06:54:55.503Z,99.99
2017-08-03T06:56:05.124Z,99.99
2017-08-03T06:57:14.046Z,99.99
2017-08-03T06:58:23.295Z,99.99
2017-08-03T06:59:32.884Z,99.99
2017-08-03T07:00:42.203Z,99.99
2017-08-03T07:01:51.544Z,99.99
2017-08-03T07:03:00.493Z,99.99
2017-08-03T07:04:10.110Z,99.99
2017-08-03T07:05:20.255Z,99.99
2017-08-03T07:06:29.836Z,99.99
2017-08-03T07:07:39.521Z,99.99
2017-08-03T07:08:49.171Z,99.99
2017-08-03T07:09:58.140Z,99.99
2017-08-03T07:11:07.880Z,99.99
2017-08-03T07:12:17.151Z,99.99
2017-08-03T07:13:26.469Z,99.99
2017-08-03T07:14:36.067Z,99.99
2017-08-03T07:15:45.344Z,99.99
2017-08-03T07:16:55.075Z,99.99
2017-08-03T07:18:04.052Z,99.99
2017-08-03T07:19:13.002Z,99.99
2017-08-03T07:20:22.784Z,99.99
2017-08-03T07:21:32.749Z,99.99
2017-08-03T07:22:42.443Z,99.99
2017-08-03T07:23:51.713Z,99.99
2017-08-03T07:25:01.575Z,99.99
2017-08-03T07:26:10.850Z,99.99
2017-08-03T07:27:20.500Z,99.99
2017-08-03T07:28:30.409Z,99.99
2017-08-03T07:29:40.351Z,99.99
2017-08-03T07:30:49.991Z,99.99
2017-08-03T07:31:59.636Z,99.99
2017-08-03T07:33:09.225Z,99.99
2017-08-03T07:34:19.218Z,99.99
2017-08-03T07:35:28.813Z,99.99
2017-08-03T07:36:38.419Z,99.99
2017-08-03T07:37:48.057Z,99.99
2017-08-03T07:38:57.003Z,99.99
2017-08-03T07:40:06.464Z,99.99
2017-08-03T07:41:16.080Z,99.99
2017-08-03T07:42:25.387Z,99.99
2017-08-03T07:43:34.965Z,99.99
2017-08-03T07:44:44.423Z,99.99
2017-08-03T07:45:54.370Z,99.99
2017-08-03T07:47:04.219Z,99.99
2017-08-03T07:48:13.527Z,99.99
2017-08-03T07:49:23.119Z,99.99
2017-08-03T07:50:32.414Z,99.99
2017-08-03T07:51:42.114Z,99.99
2017-08-03T07:52:51.388Z,99.99
2017-08-03T07:54:01.023Z,99.99
2017-08-03T07:55:10.262Z,99.99
2017-08-03T07:56:19.157Z,99.99
2017-08-03T07:57:28.419Z,99.99
2017-08-03T07:58:37.953Z,99.99
2017-08-03T07:59:47.750Z,99.99
2017-08-03T08:00:57.094Z,99.99
2017-08-03T08:02:06.489Z,99.99
2017-08-03T08:03:15.886Z,99.99
2017-08-03T08:04:25.223Z,99.99
2017-08-03T08:05:34.477Z,99.99
2017-08-03T08:06:43.732Z,99.99
2017-08-03T08:07:53.629Z,99.99
2017-08-03T08:09:03.772Z,99.99
2017-08-03T08:10:12.987Z,99.99
2017-08-03T08:11:22.585Z,99.99
2017-08-03T08:12:32.525Z,99.99
2017-08-03T08:13:42.721Z,99.99
2017-08-03T08:14:52.677Z,99.99
2017-08-03T08:16:01.906Z,99.99
2017-08-03T08:17:11.434Z,99.99
2017-08-03T08:18:21.270Z,99.99
2017-08-03T08:19:31.194Z,99.99
2017-08-03T08:20:41.066Z,99.99
2017-08-03T08:21:50.924Z,99.99
2017-08-03T08:22:59.887Z,99.99
2017-08-03T08:24:09.421Z,99.99
2017-08-03T08:25:18.653Z,99.99
2017-08-03T08:26:28.082Z,99.99
2017-08-03T08:27:37.672Z,99.99
2017-08-03T08:28:47.214Z,99.99
2017-08-03T08:29:56.433Z,99.99
2017-08-03T08:31:06.612Z,99.99
2017-08-03T08:32:16.195Z,99.99
2017-08-03T08:33:25.666Z,99.99
2017-08-03T08:34:35.401Z,99.99
2017-08-03T08:35:44.307Z,99.99
2017-08-03T08:36:54.196Z,99.99
2017-08-03T08:38:04.364Z,99.99
2017-08-03T08:39:13.893Z,99.99
2017-08-03T08:40:22.861Z,99.99
2017-08-03T08:41:32.399Z,99.99
2017-08-03T08:42:42.625Z,99.99
2017-08-03T08:43:52.815Z,99.99
2017-08-03T08:45:03.013Z,99.99
2017-08-03T08:46:13.902Z,99.99
2017-08-03T08:47:23.694Z,99.99
2017-08-03T08:48:33.178Z,99.99
2017-08-03T08:49:43.374Z,99.99
2017-08-03T08:50:53.203Z,99.99
2017-08-03T08:52:03.491Z,99.99
2017-08-03T08:53:12.732Z,99.99
2017-08-03T08:54:21.673Z,99.99
2017-08-03T08:55:31.988Z,99.99
2017-08-03T08:56:41.580Z,99.99
2017-08-03T08:57:50.496Z,99.99
2017-08-03T08:59:00.141Z,99.99
2017-08-03T09:00:09.713Z,99.99
2017-08-03T09:01:19.884Z,99.99
2017-08-03T09:02:29.710Z,99.99
2017-08-03T09:03:39.645Z,99.99
2017-08-03T09:04:48.865Z,99.99
2017-08-03T09:05:58.441Z,99.99
2017-08-03T09:07:08.800Z,99.99
2017-08-03T09:08:18.205Z,99.99
2017-08-03T09:09:27.438Z,99.99
2017-08-03T09:10:37.295Z,99.99
2017-08-03T09:11:47.161Z,99.99
2017-08-03T09:12:56.853Z,99.99
2017-08-03T09:14:06.070Z,99.99
2017-08-03T09:15:15.606Z,99.99
2017-08-03T09:16:24.503Z,99.99
2017-08-03T09:17:33.717Z,99.99
2017-08-03T09:18:43.628Z,99.99
2017-08-03T09:19:53.159Z,99.99
2017-08-03T09:21:02.375Z,99.99
2017-08-03T09:22:11.264Z,99.99
2017-08-03T09:23:20.801Z,99.99
2017-08-03T09:24:30.164Z,99.99
2017-08-03T09:25:40.042Z,99.99
2017-08-03T09:26:48.955Z,99.99
2017-08-03T09:27:58.512Z,99.99
2017-08-03T09:29:08.376Z,99.99
2017-08-03T09:30:18.065Z,99.99
2017-08-03T09:31:27.600Z,99.99
2017-08-03T09:32:37.146Z,99.99
2017-08-03T09:33:46.691Z,99.99
2017-08-03T09:34:55.907Z,99.99
2017-08-03T09:36:05.595Z,99.99
2017-08-03T09:37:14.832Z,99.99
2017-08-03T09:38:24.043Z,99.99
2017-08-03T09:39:33.253Z,99.99
2017-08-03T09:40:42.515Z,99.99
2017-08-03T09:41:52.580Z,99.99
2017-08-03T09:43:02.769Z,99.99
2017-08-03T09:44:12.303Z,99.99
2017-08-03T09:45:21.191Z,99.99
2017-08-03T09:46:30.104Z,99.99
2017-08-03T09:47:39.374Z,99.99
2017-08-03T09:48:49.240Z,99.99
2017-08-03T09:49:58.450Z,99.99
2017-08-03T09:51:07.663Z,99.99
2017-08-03T09:52:16.878Z,99.99
2017-08-03T09:53:26.483Z,99.99
2017-08-03T09:54:35.715Z,99.99
2017-08-03T09:55:44.604Z,99.99
2017-08-03T09:56:54.144Z,99.99
2017-08-03T09:58:03.694Z,99.99
2017-08-03T09:59:13.546Z,99.99
2017-08-03T10:00:22.450Z,99.99
2017-08-03T10:01:31.664Z,99.99
2017-08-03T10:02:40.570Z,99.99
2017-08-03T10:03:50.124Z,99.79
2017-08-03T10:04:59.806Z,99.99
2017-08-03T10:06:09.096Z,99.99
2017-08-03T10:07:18.954Z,99.69
2017-08-03T10:08:28.494Z,98.35
2017-08-03T10:09:38.039Z,99.69
2017-08-03T10:10:47.451Z,98.49
2017-08-03T10:11:56.996Z,97.52
2017-08-03T10:13:06.533Z,98.68
2017-08-03T10:14:16.077Z,97.04
2017-08-03T10:15:26.268Z,97.33
2017-08-03T10:16:35.580Z,93.85
2017-08-03T10:17:44.790Z,93.37
2017-08-03T10:18:54.003Z,92.11
2017-08-03T10:20:03.863Z,92.69
2017-08-03T10:21:13.402Z,92.79
2017-08-03T10:22:22.344Z,92.88
2017-08-03T10:23:31.913Z,92.88
2017-08-03T10:24:41.772Z,92.49
2017-08-03T10:25:50.694Z,92.01
2017-08-03T10:27:00.225Z,93.56
2017-08-03T10:28:10.513Z,92.59
2017-08-03T10:29:19.726Z,92.21
2017-08-03T10:30:29.586Z,91.24
2017-08-03T10:31:39.446Z,91.82
2017-08-03T10:32:48.334Z,92.74
2017-08-03T10:33:58.194Z,94.18
2017-08-03T10:35:07.733Z,92.64
2017-08-03T10:36:17.273Z,92.25
2017-08-03T10:37:27.135Z,92.93
2017-08-03T10:38:36.669Z,94.09
2017-08-03T10:39:45.880Z,91.28
2017-08-03T10:40:55.416Z,92.16
2017-08-03T10:42:04.954Z,93.99
2017-08-03T10:43:13.844Z,95.06
2017-08-03T10:44:23.379Z,93.8
2017-08-03T10:45:32.973Z,92.83
2017-08-03T10:46:42.526Z,93.32
2017-08-03T10:47:52.390Z,92
2017-08-03T10:49:02.247Z,92
2017-08-03T10:50:11.786Z,93.75
2017-08-03T10:51:21.470Z,90.84
2017-08-03T10:52:31.358Z,91.33
2017-08-03T10:53:40.599Z,91.24
2017-08-03T10:54:50.132Z,91.24
2017-08-03T10:55:59.028Z,90.07
2017-08-03T10:57:08.443Z,91.24
2017-08-03T10:58:17.978Z,92
2017-08-03T10:59:27.193Z,90.26
2017-08-03T11:00:36.409Z,90.46
2017-08-03T11:01:45.944Z,90.26
2017-08-03T11:02:55.418Z,89.83
2017-08-03T11:04:04.632Z,89.63
2017-08-03T11:05:13.855Z,90.02
2017-08-03T11:06:23.713Z,90.6
2017-08-03T11:07:33.379Z,90.21
2017-08-03T11:08:42.916Z,90.5
2017-08-03T11:09:52.142Z,90.89
2017-08-03T11:11:01.372Z,91.56
2017-08-03T11:12:11.233Z,90.99
2017-08-03T11:13:20.455Z,91.28
2017-08-03T11:14:29.671Z,89.53
2017-08-03T11:15:39.206Z,89.73
2017-08-03T11:16:48.748Z,89.15
2017-08-03T11:17:57.962Z,89.44
2017-08-03T11:19:07.501Z,89.77
2017-08-03T11:20:16.722Z,90.64
2017-08-03T11:21:26.265Z,89.68
2017-08-03T11:22:35.481Z,90.45
2017-08-03T11:23:44.694Z,88.61
2017-08-03T11:24:54.228Z,88.51
2017-08-03T11:26:04.412Z,88.61
2017-08-03T11:27:13.637Z,88.57
2017-08-03T11:28:23.178Z,87.7
2017-08-03T11:29:32.733Z,88.9
2017-08-03T11:30:41.623Z,87.31
2017-08-03T11:31:50.839Z,88.47
2017-08-03T11:33:00.389Z,88.85
2017-08-03T11:34:10.455Z,88.76
2017-08-03T11:35:19.672Z,90.12
2017-08-03T11:36:28.891Z,88.37
2017-08-03T11:37:38.102Z,88.85
2017-08-03T11:38:47.317Z,88.37
2017-08-03T11:39:56.933Z,89.05
2017-08-03T11:41:06.805Z,88.67
2017-08-03T11:42:16.674Z,89.25
2017-08-03T11:43:26.538Z,89.73
2017-08-03T11:44:36.072Z,90.46
2017-08-03T11:45:46.142Z,90.31
2017-08-03T11:46:55.355Z,89.97
2017-08-03T11:48:04.572Z,90.07
2017-08-03T11:49:14.436Z,90.31
2017-08-03T11:50:23.657Z,89.59
2017-08-03T11:51:33.257Z,89.69
2017-08-03T11:52:42.472Z,90.12
2017-08-03T11:53:51.686Z,89.63
2017-08-03T11:55:01.227Z,89.05
2017-08-03T11:56:10.115Z,87.74
2017-08-03T11:57:19.713Z,87.84
2017-08-03T11:58:29.268Z,88.47
2017-08-03T11:59:39.127Z,88.51
2017-08-03T12:00:48.988Z,87.45
2017-08-03T12:01:58.200Z,87.64
2017-08-03T12:03:08.073Z,87.64
2017-08-03T12:04:17.302Z,88.47
2017-08-03T12:05:26.845Z,88.37
2017-08-03T12:06:36.059Z,88.76
2017-08-03T12:07:45.601Z,88.76
2017-08-03T12:08:55.025Z,89.05
2017-08-03T12:10:04.564Z,88.37
2017-08-03T12:11:13.783Z,89.05
2017-08-03T12:12:23.649Z,87.5
2017-08-03T12:13:32.542Z,88.37
2017-08-03T12:14:42.065Z,87.64
2017-08-03T12:15:51.285Z,87.26
2017-08-03T12:17:00.504Z,87.74
2017-08-03T12:18:10.044Z,87.4
2017-08-03T12:19:19.912Z,86.82
2017-08-03T12:20:29.189Z,85.75
2017-08-03T12:21:38.730Z,85.4
2017-08-03T12:22:47.945Z,84.05
2017-08-03T12:23:56.851Z,83.27
2017-08-03T12:25:06.723Z,82.59
2017-08-03T12:26:16.267Z,83.56
2017-08-03T12:27:25.811Z,82.59
2017-08-03T12:28:35.357Z,83.37
2017-08-03T12:29:44.899Z,83.47
2017-08-03T12:30:54.782Z,83.42
2017-08-03T12:32:04.487Z,84.58
2017-08-03T12:33:14.354Z,84.2
2017-08-03T12:34:24.217Z,84.58
2017-08-03T12:35:33.433Z,85.41
2017-08-03T12:36:42.658Z,85.41
2017-08-03T12:37:52.601Z,85.51
2017-08-03T12:39:01.826Z,85.03
2017-08-03T12:40:11.368Z,85.13
2017-08-03T12:41:20.908Z,85.61
2017-08-03T12:42:30.454Z,86.19
2017-08-03T12:43:40.368Z,86.29
2017-08-03T12:44:49.909Z,86.29
2017-08-03T12:45:59.481Z,85.41
2017-08-03T12:47:09.022Z,85.46
2017-08-03T12:48:18.891Z,85.17
2017-08-03T12:49:28.836Z,85.55
2017-08-03T12:50:39.348Z,85.36
2017-08-03T12:51:48.580Z,86.43
2017-08-03T12:52:58.447Z,85.46
2017-08-03T12:54:07.665Z,85.94
2017-08-03T12:55:16.809Z,86.09
2017-08-03T12:56:26.361Z,86.09
2017-08-03T12:57:36.227Z,86.43
2017-08-03T12:58:45.765Z,86.33
2017-08-03T12:59:55.646Z,86.23
2017-08-03T13:01:05.444Z,84.53
2017-08-03T13:02:14.666Z,84.14
2017-08-03T13:03:24.542Z,84.34
2017-08-03T13:04:34.420Z,84.14
2017-08-03T13:05:43.990Z,82.63
2017-08-03T13:06:53.262Z,80.6
2017-08-03T13:08:03.139Z,80.85
2017-08-03T13:09:12.361Z,82.1
2017-08-03T13:10:21.609Z,82.1
2017-08-03T13:11:30.508Z,83.27
2017-08-03T13:12:40.152Z,85.79
2017-08-03T13:13:49.050Z,85.6
2017-08-03T13:14:58.266Z,86.47
2017-08-03T13:16:07.812Z,85.02
2017-08-03T13:17:16.727Z,82.65
2017-08-03T13:18:25.672Z,82.75
2017-08-03T13:19:35.218Z,83.03
2017-08-03T13:20:44.114Z,84.3
2017-08-03T13:21:53.661Z,84.2
2017-08-03T13:23:02.883Z,84.2
2017-08-03T13:24:12.949Z,84.68
2017-08-03T13:25:21.847Z,83.81
2017-08-03T13:26:31.069Z,84.78
2017-08-03T13:27:40.610Z,84.2
2017-08-03T13:28:50.178Z,84.14
2017-08-03T13:30:00.342Z,84.43
2017-08-03T13:31:09.246Z,83.85
2017-08-03T13:32:18.471Z,82.78
2017-08-03T13:33:27.739Z,83.17
2017-08-03T13:34:37.959Z,83.17
2017-08-03T13:35:47.582Z,82.59
2017-08-03T13:36:57.134Z,82.44
2017-08-03T13:38:06.377Z,82.24
2017-08-03T13:39:16.252Z,82.34
2017-08-03T13:40:25.809Z,81.85
2017-08-03T13:41:35.861Z,82.24
2017-08-03T13:42:44.779Z,82.24
2017-08-03T13:43:54.329Z,83.75
2017-08-03T13:45:03.224Z,85.17
2017-08-03T13:46:12.454Z,86.48
2017-08-03T13:47:22.147Z,87.45
2017-08-03T13:48:31.366Z,87.64
2017-08-03T13:49:40.906Z,88.47
2017-08-03T13:50:50.127Z,89.59
2017-08-03T13:51:59.671Z,89.01
2017-08-03T13:53:08.572Z,89.11
2017-08-03T13:54:17.474Z,88.34
2017-08-03T13:55:26.731Z,85.44
2017-08-03T13:56:35.952Z,84.57
2017-08-03T13:57:45.184Z,82.45
2017-08-03T13:58:54.899Z,81.23
2017-08-03T14:00:04.459Z,80.01
2017-08-03T14:01:14.334Z,79.33
2017-08-03T14:02:24.529Z,79.85
2017-08-03T14:03:33.433Z,77.44
2017-08-03T14:04:42.491Z,76.28
2017-08-03T14:05:52.051Z,75.56
2017-08-03T14:07:01.615Z,73.85
2017-08-03T14:08:11.228Z,73.85
2017-08-03T14:09:20.510Z,73.66
2017-08-03T14:10:30.342Z,74.15
2017-08-03T14:11:40.207Z,74.11
2017-08-03T14:12:49.429Z,74.4
2017-08-03T14:13:59.006Z,74.11
2017-08-03T14:15:08.578Z,72.66
2017-08-03T14:16:18.394Z,72.3
2017-08-03T14:17:27.956Z,72.6
2017-08-03T14:18:37.179Z,72.24
2017-08-03T14:19:46.419Z,72.05
2017-08-03T14:20:55.668Z,72.05
2017-08-03T14:22:04.946Z,71.76
2017-08-03T14:23:13.867Z,72.05
2017-08-03T14:24:23.147Z,72.98
2017-08-03T14:25:32.068Z,73.85
2017-08-03T14:26:41.611Z,72.98
2017-08-03T14:27:51.217Z,71.86
2017-08-03T14:29:00.763Z,72.44
2017-08-03T14:30:10.308Z,72.15
2017-08-03T14:31:19.916Z,72.09
2017-08-03T14:32:29.898Z,71.54
2017-08-03T14:33:39.680Z,70.47
2017-08-03T14:34:48.939Z,70.57
2017-08-03T14:35:58.537Z,68.86
2017-08-03T14:37:08.407Z,68.44
2017-08-03T14:38:17.949Z,69.15
2017-08-03T14:39:27.495Z,68.34
2017-08-03T14:40:37.365Z,67.31
2017-08-03T14:41:46.267Z,68.08
2017-08-03T14:42:55.505Z,67.79
2017-08-03T14:44:05.383Z,67.34
2017-08-03T14:45:14.938Z,66.37
2017-08-03T14:46:24.169Z,65.33
2017-08-03T14:47:33.717Z,66.4
2017-08-03T14:48:42.953Z,66.56
2017-08-03T14:49:52.182Z,66.86
2017-08-03T14:51:01.407Z,66.79
2017-08-03T14:52:10.956Z,64.95
2017-08-03T14:53:20.177Z,66.08
2017-08-03T14:54:29.727Z,65.82
2017-08-03T14:55:39.276Z,63.98